Time;durP1;ratioP1;P1;durP2;ratioP2;P2;SDS_P1;SDS_P2;PMS_P1;PMS_P2;Temp;Humidity;BMP_temperature;BMP_pressure;BME280_temperature;BME280_humidity;BME280_pressure;Samples;Min_cycle;Max_cycle;Signal;HPM_P1;HPM_P2
2023/04/23 06:52:05;;;;;;;9.93;5.00;;;;;;;;;;3847983;23;20302;-94
2023/04/23 06:54:30;;;;;;;9.25;4.20;;;;;;;;;;4957920;28;20547;-94
2023/04/23 06:56:56;;;;;;;9.68;4.50;;;;;;;;;;4967466;28;20069;-94
2023/04/23 06:59:21;;;;;;;9.13;4.93;;;;;;;;;;4966784;28;20019;-93
2023/04/23 07:01:47;;;;;;;11.48;3.92;;;;;;;;;;4958355;28;20455;-94
2023/04/23 07:04:12;;;;;;;9.48;4.30;;;;;;;;;;4967916;28;20048;-94
2023/04/23 07:06:37;;;;;;;8.35;3.85;;;;;;;;;;4961700;28;20027;-93
2023/04/23 07:09:03;;;;;;;12.90;4.70;;;;;;;;;;4961646;28;20109;-94
2023/04/23 07:11:30;;;;;;;10.80;4.10;;;;;;;;;;4970264;28;20022;-94
2023/04/23 07:13:56;;;;;;;7.55;4.38;;;;;;;;;;4972716;28;20086;-95
2023/04/23 07:16:22;;;;;;;10.10;3.60;;;;;;;;;;4968008;28;20065;-93
2023/04/23 07:18:51;;;;;;;8.95;3.50;;;;;;;;;;4958643;28;20110;-94
2023/04/23 07:21:18;;;;;;;13.65;4.53;;;;;;;;;;4961108;28;20122;-92
2023/04/23 07:23:47;;;;;;;8.45;3.78;;;;;;;;;;4960637;28;20035;-94
2023/04/23 07:26:18;;;;;;;8.13;3.13;;;;;;;;;;4979345;28;20599;-95
2023/04/23 07:29:02;;;;;;;12.95;3.50;;;;;;;;;;4968666;28;20026;-94
2023/04/23 07:31:27;;;;;;;6.85;2.65;;;;;;;;;;4963862;28;20063;-93
2023/04/23 07:33:55;;;;;;;14.80;3.92;;;;;;;;;;4950275;28;20123;-95
2023/04/23 07:36:23;;;;;;;10.85;3.88;;;;;;;;;;4962801;28;20035;-95
2023/04/23 07:38:49;;;;;;;7.45;3.65;;;;;;;;;;4959488;28;20142;-93
2023/04/23 07:41:16;;;;;;;7.15;2.83;;;;;;;;;;4958499;28;20034;-95
2023/04/23 07:43:43;;;;;;;7.78;3.00;;;;;;;;;;4959603;28;20027;-95
2023/04/23 07:46:10;;;;;;;7.78;2.25;;;;;;;;;;4958856;28;20122;-96
2023/04/23 07:48:35;;;;;;;9.07;2.33;;;;;;;;;;4969035;28;20129;-95
2023/04/23 07:51:03;;;;;;;9.82;3.13;;;;;;;;;;4962705;28;20435;-93
2023/04/23 07:53:32;;;;;;;8.02;2.30;;;;;;;;;;4958013;28;20050;-96
2023/04/23 07:56:00;;;;;;;9.75;2.78;;;;;;;;;;4979419;28;20098;-95
2023/04/23 07:58:26;;;;;;;9.38;2.92;;;;;;;;;;4970411;28;20022;-96
2023/04/23 08:00:54;;;;;;;7.47;2.80;;;;;;;;;;4964637;28;20031;-96
2023/04/23 08:03:33;;;;;;;4.80;2.05;;;;;;;;;;4966606;28;20113;-96
2023/04/23 08:06:03;;;;;;;6.93;1.92;;;;;;;;;;4955811;28;20027;-96
2023/04/23 08:08:34;;;;;;;9.20;2.55;;;;;;;;;;4965575;28;20023;-96
2023/04/23 08:11:51;;;;;;;;;;;;;;;;;;;;;
2023/04/23 08:14:29;;;;;;;12.50;2.80;;;;;;;;;;4990309;28;20057;-96
2023/04/23 08:17:17;;;;;;;7.25;2.35;;;;;;;;;;4946213;28;20134;-95
2023/04/23 08:19:55;;;;;;;7.68;2.13;;;;;;;;;;4964350;29;20038;-95
2023/04/23 08:22:54;;;;;;;;;;;;;;;;;;;;;
2023/04/23 08:28:26;;;;;;;9.23;2.60;;;;;;;;;;4896213;29;20043;-95
2023/04/23 08:31:02;;;;;;;5.35;1.70;;;;;;;;;;4901268;29;20130;-96
2023/04/23 08:33:40;;;;;;;11.93;2.58;;;;;;;;;;4963956;28;20101;-95
2023/04/23 08:36:34;;;;;;;9.93;3.25;;;;;;;;;;4970567;28;20066;-96
2023/04/23 08:39:12;;;;;;;9.75;2.67;;;;;;;;;;4964840;28;20034;-95
2023/04/23 08:41:41;;;;;;;13.68;2.63;;;;;;;;;;4971849;28;20034;-96
2023/04/23 08:44:58;;;;;;;;;;;;;;;;;;;;;
2023/04/23 08:50:51;;;;;;;9.88;2.78;;;;;;;;;;4883054;29;20033;-96
2023/04/23 08:53:58;;;;;;;10.43;2.35;;;;;;;;;;4979767;28;20022;-96
2023/04/23 08:56:49;;;;;;;4.60;2.30;;;;;;;;;;4986002;28;20074;-96
2023/04/23 08:59:29;;;;;;;;;;;;;;;;;;;;;
2023/04/23 09:02:06;;;;;;;6.85;1.83;;;;;;;;;;5005173;28;20117;-96
2023/04/23 09:08:35;;;;;;;;;;;;;;;;;;;;;
2023/04/23 09:15:49;;;;;;;8.75;2.88;;;;;;;;;;5067796;23;20496;-96
2023/04/23 09:18:50;;;;;;;10.15;2.33;;;;;;;;;;4951717;29;20042;-96
2023/04/23 09:22:06;;;;;;;;;;;;;;;;;;;;;
2023/04/23 09:33:38;;;;;;;8.63;2.67;;;;;;;;;;4881195;29;20028;-95
2023/04/23 09:36:35;;;;;;;1.30;0.85;;;;;;;;;;4891941;29;20048;-96
2023/04/23 09:49:31;;;;;;;5.28;2.13;;;;;;;;;;4871272;29;20037;-96
2023/04/23 09:52:28;;;;;;;7.10;2.70;;;;;;;;;;4839916;29;20116;-95
2023/04/23 09:54:58;;;;;;;6.70;2.70;;;;;;;;;;4932948;29;20046;-95
2023/04/23 09:57:44;;;;;;;8.27;2.60;;;;;;;;;;4951391;29;20219;-95
2023/04/23 10:03:50;;;;;;;7.00;1.98;;;;;;;;;;4989188;28;20034;-95
2023/04/23 10:06:44;;;;;;;4.15;1.70;;;;;;;;;;4920535;28;20061;-96
2023/04/23 10:09:11;;;;;;;6.95;1.65;;;;;;;;;;4960553;28;20046;-96
2023/04/23 10:15:44;;;;;;;7.00;2.13;;;;;;;;;;4969142;28;20190;-96
2023/04/23 10:17:58;;;;;;;8.00;2.00;;;;;;;;;;4983262;28;20043;-96
2023/04/23 10:20:37;;;;;;;;;;;;;;;;;;;;;
2023/04/23 10:23:25;;;;;;;5.80;1.70;;;;;;;;;;5170968;23;20073;-96
2023/04/23 10:26:02;;;;;;;4.97;1.60;;;;;;;;;;5004218;23;20597;-96
2023/04/23 10:29:06;;;;;;;;;;;;;;;;;;;;;
2023/04/23 10:31:58;;;;;;;;;;;;;;;;;;;;;
2023/04/23 10:40:15;;;;;;;4.45;2.15;;;;;;;;;;4973836;28;20027;-96
2023/04/23 10:42:44;;;;;;;8.43;2.20;;;;;;;;;;4970926;28;20039;-96
2023/04/23 10:45:26;;;;;;;5.13;1.27;;;;;;;;;;4987393;28;20018;-96
2023/04/23 10:54:19;;;;;;;4.78;1.23;;;;;;;;;;4948495;28;20067;-95
2023/04/23 10:59:55;;;;;;;3.17;1.52;;;;;;;;;;4989300;28;20418;-96
2023/04/23 11:06:14;;;;;;;3.17;1.27;;;;;;;;;;4941406;28;20425;-96
2023/04/23 11:12:21;;;;;;;0.80;0.50;;;;;;;;;;4933054;29;20032;-95
2023/04/23 11:18:36;;;;;;;;;;;;;;;;;;;;;
2023/04/23 11:21:38;;;;;;;5.60;1.00;;;;;;;;;;4923740;29;20039;-95
2023/04/23 11:26:58;;;;;;;;;;;;;;;;;;;;;
2023/04/23 11:30:17;;;;;;;5.25;1.35;;;;;;;;;;4968148;28;20035;-95
2023/04/23 11:33:24;;;;;;;;;;;;;;;;;;;;;
2023/04/23 11:46:38;;;;;;;6.78;1.20;;;;;;;;;;6037437;23;20027;-94
2023/04/23 11:55:01;;;;;;;5.07;1.15;;;;;;;;;;5251894;23;20048;-95
2023/04/23 11:58:07;;;;;;;5.20;0.77;;;;;;;;;;4979515;28;20097;-95
2023/04/23 12:00:38;;;;;;;9.00;1.30;;;;;;;;;;4945159;29;20034;-95
2023/04/23 12:03:26;;;;;;;1.80;0.73;;;;;;;;;;4936067;29;20048;-95
2023/04/23 12:06:06;;;;;;;6.20;1.10;;;;;;;;;;5306093;23;20066;-96
2023/04/23 12:08:53;;;;;;;6.35;0.80;;;;;;;;;;4960129;28;20030;-95
2023/04/23 12:11:23;;;;;;;3.90;1.20;;;;;;;;;;4994676;28;20029;-96
2023/04/23 12:17:23;;;;;;;4.70;1.02;;;;;;;;;;5051350;23;20050;-96
2023/04/23 12:20:05;;;;;;;5.97;0.98;;;;;;;;;;4966053;28;20050;-95
2023/04/23 12:22:38;;;;;;;7.43;0.98;;;;;;;;;;4967784;28;20114;-96
2023/04/23 12:25:07;;;;;;;6.18;1.13;;;;;;;;;;4968373;28;20027;-96
2023/04/23 12:27:37;;;;;;;3.58;0.98;;;;;;;;;;4983646;28;20144;-94
2023/04/23 12:30:06;;;;;;;2.97;0.65;;;;;;;;;;4953155;28;20070;-96
2023/04/23 12:32:32;;;;;;;2.92;0.73;;;;;;;;;;4975646;28;20022;-95
2023/04/23 12:35:25;;;;;;;;;;;;;;;;;;;;;
2023/04/23 12:37:54;;;;;;;4.70;0.90;;;;;;;;;;4969945;28;20117;-96
2023/04/23 12:40:29;;;;;;;1.33;0.60;;;;;;;;;;4988004;28;20062;-95
2023/04/23 12:43:05;;;;;;;3.25;0.85;;;;;;;;;;4961490;28;20039;-95
